sensor_id;sensor_type;location;lat;lon;timestamp;temperature;humidity
20483;DHT22;10400;53.198;6.592;2023-03-01T00:01:58;2.30;99.90
20483;DHT22;10400;53.198;6.592;2023-03-01T00:04:24;2.20;99.90
20483;DHT22;10400;53.198;6.592;2023-03-01T00:06:50;2.20;99.90
20483;DHT22;10400;53.198;6.592;2023-03-01T00:09:16;2.10;99.90
20483;DHT22;10400;53.198;6.592;2023-03-01T00:11:42;2.10;99.90
20483;DHT22;10400;53.198;6.592;2023-03-01T00:14:08;2.00;99.90
20483;DHT22;10400;53.198;6.592;2023-03-01T00:16:37;2.00;99.90
20483;DHT22;10400;53.198;6.592;2023-03-01T00:19:05;1.90;99.90
20483;DHT22;10400;53.198;6.592;2023-03-01T00:21:32;1.90;99.90
20483;DHT22;10400;53.198;6.592;2023-03-01T00:23:59;1.90;99.90
20483;DHT22;10400;53.198;6.592;2023-03-01T00:26:25;1.90;99.90
20483;DHT22;10400;53.198;6.592;2023-03-01T00:28:51;1.80;99.90
20483;DHT22;10400;53.198;6.592;2023-03-01T00:31:23;1.90;99.90
20483;DHT22;10400;53.198;6.592;2023-03-01T00:33:56;1.80;99.90
20483;DHT22;10400;53.198;6.592;2023-03-01T00:36:27;1.80;99.90
20483;DHT22;10400;53.198;6.592;2023-03-01T00:38:53;1.70;99.90
20483;DHT22;10400;53.198;6.592;2023-03-01T00:41:19;1.70;99.90
20483;DHT22;10400;53.198;6.592;2023-03-01T00:43:45;1.70;99.90
20483;DHT22;10400;53.198;6.592;2023-03-01T00:46:13;1.60;99.90
20483;DHT22;10400;53.198;6.592;2023-03-01T00:48:39;1.60;99.90
20483;DHT22;10400;53.198;6.592;2023-03-01T00:51:16;1.50;99.90
20483;DHT22;10400;53.198;6.592;2023-03-01T00:53:42;1.50;99.90
20483;DHT22;10400;53.198;6.592;2023-03-01T00:56:10;1.50;99.90
20483;DHT22;10400;53.198;6.592;2023-03-01T00:58:37;1.50;99.90
20483;DHT22;10400;53.198;6.592;2023-03-01T01:01:10;1.50;99.90
20483;DHT22;10400;53.198;6.592;2023-03-01T01:03:44;1.40;99.90
20483;DHT22;10400;53.198;6.592;2023-03-01T01:06:14;1.40;99.90
20483;DHT22;10400;53.198;6.592;2023-03-01T01:08:40;1.30;99.90
20483;DHT22;10400;53.198;6.592;2023-03-01T01:11:05;1.30;99.90
20483;DHT22;10400;53.198;6.592;2023-03-01T01:13:33;1.30;99.90
20483;DHT22;10400;53.198;6.592;2023-03-01T01:16:02;1.30;99.90
20483;DHT22;10400;53.198;6.592;2023-03-01T01:18:28;1.30;99.90
20483;DHT22;10400;53.198;6.592;2023-03-01T01:20:54;1.30;99.90
20483;DHT22;10400;53.198;6.592;2023-03-01T01:23:19;1.30;99.90
20483;DHT22;10400;53.198;6.592;2023-03-01T01:25:45;1.30;99.90
20483;DHT22;10400;53.198;6.592;2023-03-01T01:28:11;1.20;99.90
20483;DHT22;10400;53.198;6.592;2023-03-01T01:30:36;1.20;99.90
20483;DHT22;10400;53.198;6.592;2023-03-01T01:33:02;1.20;99.90
20483;DHT22;10400;53.198;6.592;2023-03-01T01:35:28;1.20;99.90
20483;DHT22;10400;53.198;6.592;2023-03-01T01:37:53;1.10;99.90
20483;DHT22;10400;53.198;6.592;2023-03-01T01:40:19;1.20;99.90
20483;DHT22;10400;53.198;6.592;2023-03-01T01:42:45;1.10;99.90
20483;DHT22;10400;53.198;6.592;2023-03-01T01:45:34;1.10;99.90
20483;DHT22;10400;53.198;6.592;2023-03-01T01:48:04;1.10;99.90
20483;DHT22;10400;53.198;6.592;2023-03-01T01:50:32;1.10;99.90
20483;DHT22;10400;53.198;6.592;2023-03-01T01:53:12;1.10;99.90
20483;DHT22;10400;53.198;6.592;2023-03-01T01:55:43;1.10;99.90
20483;DHT22;10400;53.198;6.592;2023-03-01T01:58:12;1.10;99.90
20483;DHT22;10400;53.198;6.592;2023-03-01T02:00:39;1.00;99.90
20483;DHT22;10400;53.198;6.592;2023-03-01T02:03:09;1.10;99.90
20483;DHT22;10400;53.198;6.592;2023-03-01T02:05:38;1.10;99.90
20483;DHT22;10400;53.198;6.592;2023-03-01T02:08:06;1.00;99.90
20483;DHT22;10400;53.198;6.592;2023-03-01T02:10:34;1.10;99.90
20483;DHT22;10400;53.198;6.592;2023-03-01T02:13:01;1.00;99.90
20483;DHT22;10400;53.198;6.592;2023-03-01T02:15:32;1.00;99.90
20483;DHT22;10400;53.198;6.592;2023-03-01T02:17:58;1.00;99.90
20483;DHT22;10400;53.198;6.592;2023-03-01T02:23:05;1.00;99.90
20483;DHT22;10400;53.198;6.592;2023-03-01T02:25:44;0.90;99.90
20483;DHT22;10400;53.198;6.592;2023-03-01T02:30:46;0.90;99.90
20483;DHT22;10400;53.198;6.592;2023-03-01T02:33:32;0.90;99.90
20483;DHT22;10400;53.198;6.592;2023-03-01T02:36:23;0.80;99.90
20483;DHT22;10400;53.198;6.592;2023-03-01T02:38:51;0.80;99.90
20483;DHT22;10400;53.198;6.592;2023-03-01T02:41:19;0.80;99.90
20483;DHT22;10400;53.198;6.592;2023-03-01T02:43:46;0.70;99.90
20483;DHT22;10400;53.198;6.592;2023-03-01T02:46:19;0.80;99.90
20483;DHT22;10400;53.198;6.592;2023-03-01T02:48:50;0.70;99.90
20483;DHT22;10400;53.198;6.592;2023-03-01T02:57:13;0.70;99.90
20483;DHT22;10400;53.198;6.592;2023-03-01T02:59:39;0.70;99.90
20483;DHT22;10400;53.198;6.592;2023-03-01T03:02:07;0.70;99.90
20483;DHT22;10400;53.198;6.592;2023-03-01T03:04:33;0.70;99.90
20483;DHT22;10400;53.198;6.592;2023-03-01T03:06:58;0.70;99.90
20483;DHT22;10400;53.198;6.592;2023-03-01T03:09:24;0.60;99.90
20483;DHT22;10400;53.198;6.592;2023-03-01T03:11:49;0.60;99.90
20483;DHT22;10400;53.198;6.592;2023-03-01T03:14:16;0.60;99.90
20483;DHT22;10400;53.198;6.592;2023-03-01T03:16:44;0.50;99.90
20483;DHT22;10400;53.198;6.592;2023-03-01T03:19:10;0.50;99.90
20483;DHT22;10400;53.198;6.592;2023-03-01T03:21:36;0.50;99.90
20483;DHT22;10400;53.198;6.592;2023-03-01T03:24:02;0.50;99.90
20483;DHT22;10400;53.198;6.592;2023-03-01T03:26:28;0.50;99.90
20483;DHT22;10400;53.198;6.592;2023-03-01T03:28:54;0.40;99.90
20483;DHT22;10400;53.198;6.592;2023-03-01T03:31:19;0.50;99.90
20483;DHT22;10400;53.198;6.592;2023-03-01T03:33:45;0.40;99.90
20483;DHT22;10400;53.198;6.592;2023-03-01T03:36:19;0.40;99.90
20483;DHT22;10400;53.198;6.592;2023-03-01T03:38:45;0.40;99.90
20483;DHT22;10400;53.198;6.592;2023-03-01T03:41:11;0.40;99.90
20483;DHT22;10400;53.198;6.592;2023-03-01T03:43:38;0.30;99.90
20483;DHT22;10400;53.198;6.592;2023-03-01T03:46:04;0.40;99.90
20483;DHT22;10400;53.198;6.592;2023-03-01T03:48:41;0.30;99.90
20483;DHT22;10400;53.198;6.592;2023-03-01T03:51:10;0.30;99.90
20483;DHT22;10400;53.198;6.592;2023-03-01T03:53:36;0.30;99.90
20483;DHT22;10400;53.198;6.592;2023-03-01T03:56:02;0.30;99.90
20483;DHT22;10400;53.198;6.592;2023-03-01T03:58:27;0.20;99.90
20483;DHT22;10400;53.198;6.592;2023-03-01T04:00:55;0.20;99.90
20483;DHT22;10400;53.198;6.592;2023-03-01T04:03:22;0.20;99.90
20483;DHT22;10400;53.198;6.592;2023-03-01T04:05:48;0.20;99.90
20483;DHT22;10400;53.198;6.592;2023-03-01T04:08:16;0.20;99.90
20483;DHT22;10400;53.198;6.592;2023-03-01T04:10:47;0.20;99.90
20483;DHT22;10400;53.198;6.592;2023-03-01T04:13:16;0.10;99.90
20483;DHT22;10400;53.198;6.592;2023-03-01T04:15:42;0.10;99.90
20483;DHT22;10400;53.198;6.592;2023-03-01T04:18:10;0.10;99.90
20483;DHT22;10400;53.198;6.592;2023-03-01T04:20:37;0.10;99.90
20483;DHT22;10400;53.198;6.592;2023-03-01T04:23:05;0.00;99.90
20483;DHT22;10400;53.198;6.592;2023-03-01T04:25:55;0.00;99.90
20483;DHT22;10400;53.198;6.592;2023-03-01T04:28:31;0.00;99.90
20483;DHT22;10400;53.198;6.592;2023-03-01T04:31:03;0.00;99.90
20483;DHT22;10400;53.198;6.592;2023-03-01T04:33:59;0.00;99.90
20483;DHT22;10400;53.198;6.592;2023-03-01T04:36:27;0.00;99.90
20483;DHT22;10400;53.198;6.592;2023-03-01T04:38:53;0.00;99.90
20483;DHT22;10400;53.198;6.592;2023-03-01T04:41:22;0.00;99.90
20483;DHT22;10400;53.198;6.592;2023-03-01T04:43:48;0.00;99.90
20483;DHT22;10400;53.198;6.592;2023-03-01T04:46:16;-0.10;99.90
20483;DHT22;10400;53.198;6.592;2023-03-01T04:48:43;-0.10;99.90
20483;DHT22;10400;53.198;6.592;2023-03-01T04:51:10;-0.10;99.90
20483;DHT22;10400;53.198;6.592;2023-03-01T04:53:39;-0.10;99.90
20483;DHT22;10400;53.198;6.592;2023-03-01T04:56:05;-0.20;99.90
20483;DHT22;10400;53.198;6.592;2023-03-01T04:58:32;-0.20;99.90
20483;DHT22;10400;53.198;6.592;2023-03-01T05:00:57;-0.20;99.90
20483;DHT22;10400;53.198;6.592;2023-03-01T05:03:23;-0.30;99.90
20483;DHT22;10400;53.198;6.592;2023-03-01T05:05:51;-0.30;99.90
20483;DHT22;10400;53.198;6.592;2023-03-01T05:08:17;-0.30;99.90
20483;DHT22;10400;53.198;6.592;2023-03-01T05:10:45;-0.30;99.90
20483;DHT22;10400;53.198;6.592;2023-03-01T05:13:12;-0.20;99.90
20483;DHT22;10400;53.198;6.592;2023-03-01T05:15:39;-0.30;99.90
20483;DHT22;10400;53.198;6.592;2023-03-01T05:18:05;-0.30;99.90
20483;DHT22;10400;53.198;6.592;2023-03-01T05:20:37;-0.30;99.90
20483;DHT22;10400;53.198;6.592;2023-03-01T05:23:03;-0.30;99.90
20483;DHT22;10400;53.198;6.592;2023-03-01T05:25:34;-0.30;99.90
20483;DHT22;10400;53.198;6.592;2023-03-01T05:28:01;-0.30;99.90
20483;DHT22;10400;53.198;6.592;2023-03-01T05:30:30;-0.40;99.90
20483;DHT22;10400;53.198;6.592;2023-03-01T05:32:56;-0.40;99.90
20483;DHT22;10400;53.198;6.592;2023-03-01T05:35:23;-0.40;99.90
20483;DHT22;10400;53.198;6.592;2023-03-01T05:37:49;-0.40;99.90
20483;DHT22;10400;53.198;6.592;2023-03-01T05:40:18;-0.30;99.90
20483;DHT22;10400;53.198;6.592;2023-03-01T05:42:53;-0.40;99.90
20483;DHT22;10400;53.198;6.592;2023-03-01T05:45:23;-0.40;99.90
20483;DHT22;10400;53.198;6.592;2023-03-01T05:47:49;-0.40;99.90
20483;DHT22;10400;53.198;6.592;2023-03-01T05:50:17;-0.40;99.90
20483;DHT22;10400;53.198;6.592;2023-03-01T05:52:48;-0.50;99.90
20483;DHT22;10400;53.198;6.592;2023-03-01T05:55:15;-0.50;99.90
20483;DHT22;10400;53.198;6.592;2023-03-01T05:57:41;-0.50;99.90
20483;DHT22;10400;53.198;6.592;2023-03-01T06:00:08;-0.50;99.90
20483;DHT22;10400;53.198;6.592;2023-03-01T06:02:34;-0.50;99.90
20483;DHT22;10400;53.198;6.592;2023-03-01T06:04:59;-0.60;99.90
20483;DHT22;10400;53.198;6.592;2023-03-01T06:07:25;-0.60;99.90
20483;DHT22;10400;53.198;6.592;2023-03-01T06:09:51;-0.50;99.90
20483;DHT22;10400;53.198;6.592;2023-03-01T06:12:17;-0.60;99.90
20483;DHT22;10400;53.198;6.592;2023-03-01T06:14:42;-0.60;99.90
20483;DHT22;10400;53.198;6.592;2023-03-01T06:17:11;-0.60;99.90
20483;DHT22;10400;53.198;6.592;2023-03-01T06:19:36;-0.60;99.90
20483;DHT22;10400;53.198;6.592;2023-03-01T06:22:02;-0.70;99.90
20483;DHT22;10400;53.198;6.592;2023-03-01T06:24:27;-0.70;99.90
20483;DHT22;10400;53.198;6.592;2023-03-01T06:26:54;-0.70;99.90
20483;DHT22;10400;53.198;6.592;2023-03-01T06:29:20;-0.60;99.90
20483;DHT22;10400;53.198;6.592;2023-03-01T06:31:45;-0.70;99.90
20483;DHT22;10400;53.198;6.592;2023-03-01T06:34:11;-0.70;99.90
20483;DHT22;10400;53.198;6.592;2023-03-01T06:36:39;-0.70;99.90
20483;DHT22;10400;53.198;6.592;2023-03-01T06:39:05;-0.70;99.90
20483;DHT22;10400;53.198;6.592;2023-03-01T06:41:31;-0.70;99.90
20483;DHT22;10400;53.198;6.592;2023-03-01T06:43:58;-0.60;99.90
20483;DHT22;10400;53.198;6.592;2023-03-01T06:46:24;-0.60;99.90
20483;DHT22;10400;53.198;6.592;2023-03-01T06:48:50;-0.60;99.90
20483;DHT22;10400;53.198;6.592;2023-03-01T06:51:18;-0.60;99.90
20483;DHT22;10400;53.198;6.592;2023-03-01T06:53:46;-0.50;99.90
20483;DHT22;10400;53.198;6.592;2023-03-01T06:56:12;-0.50;99.90
20483;DHT22;10400;53.198;6.592;2023-03-01T06:58:37;-0.30;99.90
20483;DHT22;10400;53.198;6.592;2023-03-01T07:01:09;-0.50;99.90
20483;DHT22;10400;53.198;6.592;2023-03-01T07:03:35;-0.40;99.90
20483;DHT22;10400;53.198;6.592;2023-03-01T07:06:01;-0.40;99.90
20483;DHT22;10400;53.198;6.592;2023-03-01T07:08:26;-0.30;99.90
20483;DHT22;10400;53.198;6.592;2023-03-01T07:10:59;-0.30;99.90
20483;DHT22;10400;53.198;6.592;2023-03-01T07:13:27;-0.20;99.90
20483;DHT22;10400;53.198;6.592;2023-03-01T07:15:53;-0.20;99.90
20483;DHT22;10400;53.198;6.592;2023-03-01T07:18:19;-0.10;99.90
20483;DHT22;10400;53.198;6.592;2023-03-01T07:20:44;-0.10;99.90
20483;DHT22;10400;53.198;6.592;2023-03-01T07:23:10;0.00;99.90
20483;DHT22;10400;53.198;6.592;2023-03-01T07:25:36;0.00;99.90
20483;DHT22;10400;53.198;6.592;2023-03-01T07:28:01;0.10;99.90
20483;DHT22;10400;53.198;6.592;2023-03-01T07:30:27;0.20;99.90
20483;DHT22;10400;53.198;6.592;2023-03-01T07:32:54;0.20;99.90
20483;DHT22;10400;53.198;6.592;2023-03-01T07:35:24;0.30;99.90
20483;DHT22;10400;53.198;6.592;2023-03-01T07:37:50;0.40;99.90
20483;DHT22;10400;53.198;6.592;2023-03-01T07:40:16;0.40;99.90
20483;DHT22;10400;53.198;6.592;2023-03-01T07:42:42;0.50;99.90
20483;DHT22;10400;53.198;6.592;2023-03-01T07:45:08;0.50;99.90
20483;DHT22;10400;53.198;6.592;2023-03-01T07:47:34;0.60;99.90
20483;DHT22;10400;53.198;6.592;2023-03-01T07:50:00;0.70;99.90
20483;DHT22;10400;53.198;6.592;2023-03-01T07:52:26;0.80;99.90
20483;DHT22;10400;53.198;6.592;2023-03-01T07:54:52;0.90;99.90
20483;DHT22;10400;53.198;6.592;2023-03-01T07:57:18;0.90;99.90
20483;DHT22;10400;53.198;6.592;2023-03-01T07:59:43;1.00;99.90
20483;DHT22;10400;53.198;6.592;2023-03-01T08:02:10;1.10;99.90
20483;DHT22;10400;53.198;6.592;2023-03-01T08:04:36;1.10;99.90
20483;DHT22;10400;53.198;6.592;2023-03-01T08:07:05;1.20;99.90
20483;DHT22;10400;53.198;6.592;2023-03-01T08:09:31;1.30;99.90
20483;DHT22;10400;53.198;6.592;2023-03-01T08:11:57;1.40;99.90
20483;DHT22;10400;53.198;6.592;2023-03-01T08:14:26;1.60;99.90
20483;DHT22;10400;53.198;6.592;2023-03-01T08:16:51;1.70;99.90
20483;DHT22;10400;53.198;6.592;2023-03-01T08:19:17;1.80;99.90
20483;DHT22;10400;53.198;6.592;2023-03-01T08:21:43;1.90;99.90
20483;DHT22;10400;53.198;6.592;2023-03-01T08:24:09;2.00;99.90
20483;DHT22;10400;53.198;6.592;2023-03-01T08:26:35;2.00;99.90
20483;DHT22;10400;53.198;6.592;2023-03-01T08:29:02;2.20;99.90
20483;DHT22;10400;53.198;6.592;2023-03-01T08:31:34;2.30;99.90
20483;DHT22;10400;53.198;6.592;2023-03-01T08:34:02;2.30;99.90
20483;DHT22;10400;53.198;6.592;2023-03-01T08:36:34;2.50;99.90
20483;DHT22;10400;53.198;6.592;2023-03-01T08:39:01;2.60;99.90
20483;DHT22;10400;53.198;6.592;2023-03-01T08:41:27;2.70;99.90
20483;DHT22;10400;53.198;6.592;2023-03-01T08:43:53;2.80;99.90
20483;DHT22;10400;53.198;6.592;2023-03-01T08:46:57;2.90;99.90
20483;DHT22;10400;53.198;6.592;2023-03-01T08:49:18;3.00;99.90
20483;DHT22;10400;53.198;6.592;2023-03-01T08:51:45;3.10;99.90
20483;DHT22;10400;53.198;6.592;2023-03-01T08:54:13;3.20;99.90
20483;DHT22;10400;53.198;6.592;2023-03-01T08:56:40;3.40;99.90
20483;DHT22;10400;53.198;6.592;2023-03-01T08:59:07;3.50;98.50
20483;DHT22;10400;53.198;6.592;2023-03-01T09:01:33;3.70;94.60
20483;DHT22;10400;53.198;6.592;2023-03-01T09:03:59;3.80;93.60
20483;DHT22;10400;53.198;6.592;2023-03-01T09:06:24;3.80;91.80
20483;DHT22;10400;53.198;6.592;2023-03-01T09:08:50;3.90;89.30
20483;DHT22;10400;53.198;6.592;2023-03-01T09:11:20;3.90;80.40
20483;DHT22;10400;53.198;6.592;2023-03-01T09:13:47;3.80;71.50
20483;DHT22;10400;53.198;6.592;2023-03-01T09:16:15;4.00;82.10
20483;DHT22;10400;53.198;6.592;2023-03-01T09:18:43;4.10;86.60
20483;DHT22;10400;53.198;6.592;2023-03-01T09:21:11;4.30;87.50
20483;DHT22;10400;53.198;6.592;2023-03-01T09:23:41;4.40;64.00
20483;DHT22;10400;53.198;6.592;2023-03-01T09:26:09;4.40;50.60
20483;DHT22;10400;53.198;6.592;2023-03-01T09:28:38;4.50;47.80
20483;DHT22;10400;53.198;6.592;2023-03-01T09:31:04;4.40;44.80
20483;DHT22;10400;53.198;6.592;2023-03-01T09:33:31;4.50;54.20
20483;DHT22;10400;53.198;6.592;2023-03-01T09:36:03;4.60;54.00
20483;DHT22;10400;53.198;6.592;2023-03-01T09:38:29;4.70;48.70
20483;DHT22;10400;53.198;6.592;2023-03-01T09:40:54;4.80;45.10
20483;DHT22;10400;53.198;6.592;2023-03-01T09:46:14;4.80;31.30
20483;DHT22;10400;53.198;6.592;2023-03-01T09:51:33;5.00;22.40
20483;DHT22;10400;53.198;6.592;2023-03-01T09:54:05;5.10;16.40
20483;DHT22;10400;53.198;6.592;2023-03-01T10:02:24;5.20;1.00
20483;DHT22;10400;53.198;6.592;2023-03-01T10:04:55;5.20;1.00
20483;DHT22;10400;53.198;6.592;2023-03-01T10:10:28;5.50;1.00
20483;DHT22;10400;53.198;6.592;2023-03-01T10:12:55;5.60;1.00
20483;DHT22;10400;53.198;6.592;2023-03-01T10:15:30;5.70;1.00
20483;DHT22;10400;53.198;6.592;2023-03-01T10:18:03;5.70;1.00
20483;DHT22;10400;53.198;6.592;2023-03-01T10:20:57;5.80;1.00
20483;DHT22;10400;53.198;6.592;2023-03-01T10:23:28;5.90;1.00
20483;DHT22;10400;53.198;6.592;2023-03-01T10:31:25;6.20;1.00
20483;DHT22;10400;53.198;6.592;2023-03-01T10:33:54;6.30;1.00
20483;DHT22;10400;53.198;6.592;2023-03-01T10:36:22;6.40;99.90
20483;DHT22;10400;53.198;6.592;2023-03-01T10:38:53;6.40;99.90
20483;DHT22;10400;53.198;6.592;2023-03-01T10:41:23;6.40;99.90
20483;DHT22;10400;53.198;6.592;2023-03-01T10:43:54;6.40;99.90
20483;DHT22;10400;53.198;6.592;2023-03-01T10:49:15;6.60;99.90
20483;DHT22;10400;53.198;6.592;2023-03-01T10:51:46;6.60;99.90
20483;DHT22;10400;53.198;6.592;2023-03-01T10:54:30;6.70;99.90
20483;DHT22;10400;53.198;6.592;2023-03-01T10:56:59;6.80;99.90
20483;DHT22;10400;53.198;6.592;2023-03-01T10:59:29;6.90;99.90
20483;DHT22;10400;53.198;6.592;2023-03-01T11:02:18;6.90;99.90
20483;DHT22;10400;53.198;6.592;2023-03-01T11:05:30;6.90;1.00
20483;DHT22;10400;53.198;6.592;2023-03-01T11:07:58;7.00;1.00
20483;DHT22;10400;53.198;6.592;2023-03-01T11:10:43;7.00;99.90
20483;DHT22;10400;53.198;6.592;2023-03-01T11:13:15;7.00;99.90
20483;DHT22;10400;53.198;6.592;2023-03-01T11:15:42;7.10;99.90
20483;DHT22;10400;53.198;6.592;2023-03-01T11:18:26;7.00;99.90
20483;DHT22;10400;53.198;6.592;2023-03-01T11:20:55;7.10;99.90
20483;DHT22;10400;53.198;6.592;2023-03-01T11:23:22;7.00;99.90
20483;DHT22;10400;53.198;6.592;2023-03-01T11:26:01;7.00;99.90
20483;DHT22;10400;53.198;6.592;2023-03-01T11:28:29;6.90;99.90
20483;DHT22;10400;53.198;6.592;2023-03-01T11:31:08;7.00;99.90
20483;DHT22;10400;53.198;6.592;2023-03-01T11:34:05;7.10;99.90
20483;DHT22;10400;53.198;6.592;2023-03-01T11:36:46;7.20;99.90
20483;DHT22;10400;53.198;6.592;2023-03-01T11:41:51;7.30;99.90
20483;DHT22;10400;53.198;6.592;2023-03-01T11:44:24;7.40;53.00
20483;DHT22;10400;53.198;6.592;2023-03-01T11:47:48;7.40;99.90
20483;DHT22;10400;53.198;6.592;2023-03-01T12:09:36;7.70;1.00
20483;DHT22;10400;53.198;6.592;2023-03-01T12:29:20;7.80;99.90
20483;DHT22;10400;53.198;6.592;2023-03-01T12:35:12;7.80;99.90
20483;DHT22;10400;53.198;6.592;2023-03-01T12:40:50;8.00;99.90
20483;DHT22;10400;53.198;6.592;2023-03-01T12:46:23;8.00;71.10
20483;DHT22;10400;53.198;6.592;2023-03-01T12:49:13;8.00;99.90
20483;DHT22;10400;53.198;6.592;2023-03-01T12:51:53;8.10;99.90
20483;DHT22;10400;53.198;6.592;2023-03-01T12:54:31;8.20;99.90
20483;DHT22;10400;53.198;6.592;2023-03-01T13:02:55;8.40;1.00
20483;DHT22;10400;53.198;6.592;2023-03-01T13:05:59;8.50;1.00
20483;DHT22;10400;53.198;6.592;2023-03-01T13:08:36;8.60;99.90
20483;DHT22;10400;53.198;6.592;2023-03-01T13:11:16;8.60;1.00
20483;DHT22;10400;53.198;6.592;2023-03-01T13:13:43;8.50;99.90
20483;DHT22;10400;53.198;6.592;2023-03-01T13:19:13;8.40;1.00
20483;DHT22;10400;53.198;6.592;2023-03-01T13:21:44;8.50;1.00
20483;DHT22;10400;53.198;6.592;2023-03-01T13:24:39;8.50;99.90
20483;DHT22;10400;53.198;6.592;2023-03-01T13:32:25;8.50;99.90
20483;DHT22;10400;53.198;6.592;2023-03-01T13:37:47;8.50;1.00
20483;DHT22;10400;53.198;6.592;2023-03-01T13:42:48;8.60;1.00
20483;DHT22;10400;53.198;6.592;2023-03-01T13:45:34;8.70;1.00
20483;DHT22;10400;53.198;6.592;2023-03-01T13:48:21;8.70;7.10
20483;DHT22;10400;53.198;6.592;2023-03-01T13:50:55;8.70;38.20
20483;DHT22;10400;53.198;6.592;2023-03-01T13:53:25;8.70;99.90
20483;DHT22;10400;53.198;6.592;2023-03-01T13:55:56;8.70;1.00
20483;DHT22;10400;53.198;6.592;2023-03-01T13:58:27;8.70;1.00
20483;DHT22;10400;53.198;6.592;2023-03-01T14:03:23;8.60;1.00
20483;DHT22;10400;53.198;6.592;2023-03-01T14:06:01;8.50;99.90
20483;DHT22;10400;53.198;6.592;2023-03-01T14:08:29;8.60;99.90
20483;DHT22;10400;53.198;6.592;2023-03-01T14:11:20;8.60;99.90
20483;DHT22;10400;53.198;6.592;2023-03-01T14:16:59;8.60;99.90
20483;DHT22;10400;53.198;6.592;2023-03-01T14:19:33;8.60;99.90
20483;DHT22;10400;53.198;6.592;2023-03-01T14:24:44;8.60;99.90
20483;DHT22;10400;53.198;6.592;2023-03-01T14:27:15;8.60;99.90
20483;DHT22;10400;53.198;6.592;2023-03-01T14:36:13;8.40;99.90
20483;DHT22;10400;53.198;6.592;2023-03-01T14:42:41;8.30;1.00
20483;DHT22;10400;53.198;6.592;2023-03-01T14:45:20;8.40;1.00
20483;DHT22;10400;53.198;6.592;2023-03-01T14:48:21;8.40;1.00
20483;DHT22;10400;53.198;6.592;2023-03-01T14:51:14;8.50;1.00
20483;DHT22;10400;53.198;6.592;2023-03-01T14:56:46;8.60;1.00
20483;DHT22;10400;53.198;6.592;2023-03-01T15:06:47;8.60;1.00
20483;DHT22;10400;53.198;6.592;2023-03-01T15:23:03;8.40;1.00
20483;DHT22;10400;53.198;6.592;2023-03-01T15:29:10;8.40;1.00
20483;DHT22;10400;53.198;6.592;2023-03-01T15:32:04;8.40;1.00
20483;DHT22;10400;53.198;6.592;2023-03-01T15:34:51;8.30;1.00
20483;DHT22;10400;53.198;6.592;2023-03-01T15:43:46;8.20;1.00
20483;DHT22;10400;53.198;6.592;2023-03-01T15:46:31;8.20;1.00
20483;DHT22;10400;53.198;6.592;2023-03-01T15:49:05;8.20;1.00
20483;DHT22;10400;53.198;6.592;2023-03-01T15:51:43;8.20;1.00
20483;DHT22;10400;53.198;6.592;2023-03-01T15:54:21;8.10;5.20
20483;DHT22;10400;53.198;6.592;2023-03-01T15:56:47;8.10;70.40
20483;DHT22;10400;53.198;6.592;2023-03-01T15:59:13;8.10;99.90
20483;DHT22;10400;53.198;6.592;2023-03-01T16:01:40;8.10;55.90
20483;DHT22;10400;53.198;6.592;2023-03-01T16:04:08;8.10;90.10
20483;DHT22;10400;53.198;6.592;2023-03-01T16:06:41;8.10;97.80
20483;DHT22;10400;53.198;6.592;2023-03-01T16:09:07;8.20;99.90
20483;DHT22;10400;53.198;6.592;2023-03-01T16:11:33;8.10;99.90
20483;DHT22;10400;53.198;6.592;2023-03-01T16:14:02;8.10;91.30
20483;DHT22;10400;53.198;6.592;2023-03-01T16:16:48;8.10;99.90
20483;DHT22;10400;53.198;6.592;2023-03-01T16:20:06;8.00;99.90
20483;DHT22;10400;53.198;6.592;2023-03-01T16:23:18;8.00;99.90
20483;DHT22;10400;53.198;6.592;2023-03-01T16:26:01;7.90;99.90
20483;DHT22;10400;53.198;6.592;2023-03-01T16:29:03;7.90;99.90
20483;DHT22;10400;53.198;6.592;2023-03-01T16:39:25;7.80;99.90
20483;DHT22;10400;53.198;6.592;2023-03-01T16:59:27;7.30;1.00
20483;DHT22;10400;53.198;6.592;2023-03-01T17:29:34;6.40;19.70
20483;DHT22;10400;53.198;6.592;2023-03-01T17:32:29;6.30;26.00
20483;DHT22;10400;53.198;6.592;2023-03-01T17:35:03;6.20;31.00
20483;DHT22;10400;53.198;6.592;2023-03-01T17:48:38;6.00;42.00
20483;DHT22;10400;53.198;6.592;2023-03-01T17:51:09;5.90;48.40
20483;DHT22;10400;53.198;6.592;2023-03-01T17:58:07;5.70;54.00
20483;DHT22;10400;53.198;6.592;2023-03-01T18:07:41;5.50;62.20
20483;DHT22;10400;53.198;6.592;2023-03-01T18:31:33;4.80;98.80
20483;DHT22;10400;53.198;6.592;2023-03-01T18:33:59;4.70;99.90
20483;DHT22;10400;53.198;6.592;2023-03-01T18:36:31;4.70;99.90
20483;DHT22;10400;53.198;6.592;2023-03-01T18:38:57;4.70;99.90
20483;DHT22;10400;53.198;6.592;2023-03-01T18:41:25;4.70;99.90
20483;DHT22;10400;53.198;6.592;2023-03-01T18:43:51;4.60;99.90
20483;DHT22;10400;53.198;6.592;2023-03-01T18:46:17;4.50;99.90
20483;DHT22;10400;53.198;6.592;2023-03-01T18:48:45;4.50;99.90
20483;DHT22;10400;53.198;6.592;2023-03-01T18:51:16;4.40;99.90
20483;DHT22;10400;53.198;6.592;2023-03-01T18:53:42;4.40;99.90
20483;DHT22;10400;53.198;6.592;2023-03-01T18:56:08;4.30;99.90
20483;DHT22;10400;53.198;6.592;2023-03-01T18:58:34;4.30;99.90
20483;DHT22;10400;53.198;6.592;2023-03-01T19:01:00;4.20;99.90
20483;DHT22;10400;53.198;6.592;2023-03-01T19:03:29;4.20;99.90
20483;DHT22;10400;53.198;6.592;2023-03-01T19:05:56;4.20;99.90
20483;DHT22;10400;53.198;6.592;2023-03-01T19:08:22;4.20;99.90
20483;DHT22;10400;53.198;6.592;2023-03-01T19:10:58;4.10;99.90
20483;DHT22;10400;53.198;6.592;2023-03-01T19:13:24;4.10;99.90
20483;DHT22;10400;53.198;6.592;2023-03-01T19:15:51;4.20;99.90
20483;DHT22;10400;53.198;6.592;2023-03-01T19:18:17;4.20;99.90
20483;DHT22;10400;53.198;6.592;2023-03-01T19:20:43;4.20;99.90
20483;DHT22;10400;53.198;6.592;2023-03-01T19:23:09;4.20;99.90
20483;DHT22;10400;53.198;6.592;2023-03-01T19:25:34;4.20;99.90
20483;DHT22;10400;53.198;6.592;2023-03-01T19:28:00;4.30;99.90
20483;DHT22;10400;53.198;6.592;2023-03-01T19:30:26;4.30;99.90
20483;DHT22;10400;53.198;6.592;2023-03-01T19:32:53;4.30;99.90
20483;DHT22;10400;53.198;6.592;2023-03-01T19:35:19;4.30;99.90
20483;DHT22;10400;53.198;6.592;2023-03-01T19:37:44;4.30;99.90
20483;DHT22;10400;53.198;6.592;2023-03-01T19:40:10;4.30;99.90
20483;DHT22;10400;53.198;6.592;2023-03-01T19:42:36;4.40;99.90
20483;DHT22;10400;53.198;6.592;2023-03-01T19:45:02;4.40;99.90
20483;DHT22;10400;53.198;6.592;2023-03-01T19:47:27;4.40;99.90
20483;DHT22;10400;53.198;6.592;2023-03-01T19:49:53;4.40;99.90
20483;DHT22;10400;53.198;6.592;2023-03-01T19:52:19;4.40;99.90
20483;DHT22;10400;53.198;6.592;2023-03-01T19:54:44;4.50;99.90
20483;DHT22;10400;53.198;6.592;2023-03-01T19:57:11;4.50;99.90
20483;DHT22;10400;53.198;6.592;2023-03-01T19:59:36;4.50;99.90
20483;DHT22;10400;53.198;6.592;2023-03-01T20:02:02;4.50;99.90
20483;DHT22;10400;53.198;6.592;2023-03-01T20:04:28;4.60;99.90
20483;DHT22;10400;53.198;6.592;2023-03-01T20:06:53;4.60;99.90
20483;DHT22;10400;53.198;6.592;2023-03-01T20:09:19;4.50;99.90
20483;DHT22;10400;53.198;6.592;2023-03-01T20:11:45;4.50;99.90
20483;DHT22;10400;53.198;6.592;2023-03-01T20:14:11;4.50;99.90
20483;DHT22;10400;53.198;6.592;2023-03-01T20:16:38;4.50;99.90